Kake Airport Kake US
ICAO: PAFE
IATA:
Category: Medium
Scheduled Services:

Elevation: 172 ft
TransAlt. 18000 ft.

Airport Communications:
AWOS 3:135.25
ANCHORAGE CNTR:118
CTAF:122.9
SITKA RDO:121.3

PAFE Zoom In..

Runways:

(A) RW 11 length 4000 ft width 100 ft
---- / hdg 109

(B) RW 29 length 4000 ft width 100 ft
---- / hdg 289

Location; PAFE
Day. 23 / Time. 21.56 Zulu
* Altimeter: 29.60
* Temperature: 01° c. 33.8°f.
* Wind from: VRB° Speed 03 kn.
Dewpoint: -04° c.
Visibility: 10 Statute Miles.
Clouds: Clear (automated report).

PAFE 232156Z AUTO VRB03KT 10SM CLR 01/M04 A2960 RMK AO2 SLP036 T00061039 FZRANO


Wind From VRB°
Speed 03 kn.

YouTube Music Video
 
jpsmedia.com for Web Design  worldairports.se 2018   terms of use